sensor_id;sensor_type;location;lat;lon;timestamp;P1;durP1;ratioP1;P2;durP2;ratioP2
42518;SDS011;28147;47.520;18.920;2023-03-11T00:01:23;2.08;;;0.20;;
42518;SDS011;28147;47.520;18.920;2023-03-11T00:03:49;0.50;;;0.30;;
42518;SDS011;28147;47.520;18.920;2023-03-11T00:06:14;0.38;;;0.20;;
42518;SDS011;28147;47.520;18.920;2023-03-11T00:08:40;0.55;;;0.13;;
42518;SDS011;28147;47.520;18.920;2023-03-11T00:11:05;1.35;;;0.20;;
42518;SDS011;28147;47.520;18.920;2023-03-11T00:13:31;0.25;;;0.10;;
42518;SDS011;28147;47.520;18.920;2023-03-11T00:15:57;1.63;;;0.22;;
42518;SDS011;28147;47.520;18.920;2023-03-11T00:18:25;1.45;;;0.30;;
42518;SDS011;28147;47.520;18.920;2023-03-11T00:20:54;3.50;;;0.30;;
42518;SDS011;28147;47.520;18.920;2023-03-11T00:23:21;1.35;;;0.30;;
42518;SDS011;28147;47.520;18.920;2023-03-11T00:25:47;0.60;;;0.40;;
42518;SDS011;28147;47.520;18.920;2023-03-11T00:28:13;0.40;;;0.20;;
42518;SDS011;28147;47.520;18.920;2023-03-11T00:30:40;0.08;;;0.08;;
42518;SDS011;28147;47.520;18.920;2023-03-11T00:33:06;1.80;;;0.80;;
42518;SDS011;28147;47.520;18.920;2023-03-11T00:35:32;1.20;;;0.25;;
42518;SDS011;28147;47.520;18.920;2023-03-11T00:38:09;1.17;;;0.20;;
42518;SDS011;28147;47.520;18.920;2023-03-11T00:40:37;0.30;;;0.20;;
42518;SDS011;28147;47.520;18.920;2023-03-11T00:43:03;0.63;;;0.30;;
42518;SDS011;28147;47.520;18.920;2023-03-11T00:45:28;0.93;;;0.30;;
42518;SDS011;28147;47.520;18.920;2023-03-11T00:47:55;0.10;;;0.10;;
42518;SDS011;28147;47.520;18.920;2023-03-11T00:50:21;0.25;;;0.10;;
42518;SDS011;28147;47.520;18.920;2023-03-11T00:52:50;0.70;;;0.30;;
42518;SDS011;28147;47.520;18.920;2023-03-11T00:55:17;0.65;;;0.32;;
42518;SDS011;28147;47.520;18.920;2023-03-11T00:57:45;0.25;;;0.20;;
42518;SDS011;28147;47.520;18.920;2023-03-11T01:00:14;1.05;;;0.30;;
42518;SDS011;28147;47.520;18.920;2023-03-11T01:02:42;0.45;;;0.30;;
42518;SDS011;28147;47.520;18.920;2023-03-11T01:05:08;4.13;;;0.30;;
42518;SDS011;28147;47.520;18.920;2023-03-11T01:07:34;0.93;;;0.50;;
42518;SDS011;28147;47.520;18.920;2023-03-11T01:10:00;0.35;;;0.28;;
42518;SDS011;28147;47.520;18.920;2023-03-11T01:12:26;0.73;;;0.30;;
42518;SDS011;28147;47.520;18.920;2023-03-11T01:14:52;0.30;;;0.30;;
42518;SDS011;28147;47.520;18.920;2023-03-11T01:17:18;1.10;;;0.30;;
42518;SDS011;28147;47.520;18.920;2023-03-11T01:19:46;3.05;;;0.68;;
42518;SDS011;28147;47.520;18.920;2023-03-11T01:22:11;1.95;;;0.32;;
42518;SDS011;28147;47.520;18.920;2023-03-11T01:24:37;0.55;;;0.45;;
42518;SDS011;28147;47.520;18.920;2023-03-11T01:27:02;1.02;;;0.30;;
42518;SDS011;28147;47.520;18.920;2023-03-11T01:29:28;2.15;;;0.65;;
42518;SDS011;28147;47.520;18.920;2023-03-11T01:31:53;2.00;;;0.40;;
42518;SDS011;28147;47.520;18.920;2023-03-11T01:34:18;1.85;;;0.60;;
42518;SDS011;28147;47.520;18.920;2023-03-11T01:36:44;1.40;;;0.47;;
42518;SDS011;28147;47.520;18.920;2023-03-11T01:39:09;0.30;;;0.30;;
42518;SDS011;28147;47.520;18.920;2023-03-11T01:41:35;1.42;;;0.20;;
42518;SDS011;28147;47.520;18.920;2023-03-11T01:44:00;0.45;;;0.30;;
42518;SDS011;28147;47.520;18.920;2023-03-11T01:51:46;0.82;;;0.55;;
42518;SDS011;28147;47.520;18.920;2023-03-11T01:54:19;0.77;;;0.30;;
42518;SDS011;28147;47.520;18.920;2023-03-11T01:56:48;0.55;;;0.40;;
42518;SDS011;28147;47.520;18.920;2023-03-11T01:59:17;2.53;;;0.55;;
42518;SDS011;28147;47.520;18.920;2023-03-11T02:01:49;0.55;;;0.43;;
42518;SDS011;28147;47.520;18.920;2023-03-11T02:04:21;1.90;;;0.40;;
42518;SDS011;28147;47.520;18.920;2023-03-11T02:06:47;0.35;;;0.35;;
42518;SDS011;28147;47.520;18.920;2023-03-11T02:09:13;2.03;;;0.65;;
42518;SDS011;28147;47.520;18.920;2023-03-11T02:11:39;4.22;;;0.43;;
42518;SDS011;28147;47.520;18.920;2023-03-11T02:14:05;1.33;;;0.35;;
42518;SDS011;28147;47.520;18.920;2023-03-11T02:16:32;0.40;;;0.40;;
42518;SDS011;28147;47.520;18.920;2023-03-11T02:18:58;0.98;;;0.50;;
42518;SDS011;28147;47.520;18.920;2023-03-11T02:21:29;1.58;;;0.30;;
42518;SDS011;28147;47.520;18.920;2023-03-11T02:24:11;0.50;;;0.40;;
42518;SDS011;28147;47.520;18.920;2023-03-11T02:26:53;1.98;;;0.75;;
42518;SDS011;28147;47.520;18.920;2023-03-11T02:29:33;1.00;;;0.40;;
42518;SDS011;28147;47.520;18.920;2023-03-11T02:32:00;4.43;;;0.73;;
42518;SDS011;28147;47.520;18.920;2023-03-11T02:34:33;1.83;;;0.63;;
42518;SDS011;28147;47.520;18.920;2023-03-11T02:37:02;1.67;;;0.40;;
42518;SDS011;28147;47.520;18.920;2023-03-11T02:39:36;1.17;;;0.50;;
42518;SDS011;28147;47.520;18.920;2023-03-11T02:42:04;1.80;;;0.57;;
42518;SDS011;28147;47.520;18.920;2023-03-11T02:44:34;0.30;;;0.20;;
42518;SDS011;28147;47.520;18.920;2023-03-11T02:47:00;2.38;;;0.57;;
42518;SDS011;28147;47.520;18.920;2023-03-11T02:49:26;2.42;;;0.93;;
42518;SDS011;28147;47.520;18.920;2023-03-11T02:51:52;2.65;;;0.73;;
42518;SDS011;28147;47.520;18.920;2023-03-11T02:54:17;2.70;;;0.43;;
42518;SDS011;28147;47.520;18.920;2023-03-11T02:56:43;1.17;;;0.40;;
42518;SDS011;28147;47.520;18.920;2023-03-11T02:59:08;0.93;;;0.45;;
42518;SDS011;28147;47.520;18.920;2023-03-11T03:01:33;1.65;;;0.50;;
42518;SDS011;28147;47.520;18.920;2023-03-11T03:03:59;4.03;;;0.60;;
42518;SDS011;28147;47.520;18.920;2023-03-11T03:06:24;3.10;;;0.70;;
42518;SDS011;28147;47.520;18.920;2023-03-11T03:08:52;1.15;;;0.50;;
42518;SDS011;28147;47.520;18.920;2023-03-11T03:11:18;1.70;;;0.40;;
42518;SDS011;28147;47.520;18.920;2023-03-11T03:13:44;0.98;;;0.28;;
42518;SDS011;28147;47.520;18.920;2023-03-11T03:16:09;1.95;;;0.43;;
42518;SDS011;28147;47.520;18.920;2023-03-11T03:18:34;0.68;;;0.30;;
42518;SDS011;28147;47.520;18.920;2023-03-11T03:21:00;4.20;;;0.55;;
42518;SDS011;28147;47.520;18.920;2023-03-11T03:23:26;2.55;;;0.50;;
42518;SDS011;28147;47.520;18.920;2023-03-11T03:25:51;0.20;;;0.20;;
42518;SDS011;28147;47.520;18.920;2023-03-11T03:28:17;0.63;;;0.40;;
42518;SDS011;28147;47.520;18.920;2023-03-11T03:30:42;2.85;;;0.20;;
42518;SDS011;28147;47.520;18.920;2023-03-11T03:33:08;0.80;;;0.40;;
42518;SDS011;28147;47.520;18.920;2023-03-11T03:35:33;1.75;;;0.30;;
42518;SDS011;28147;47.520;18.920;2023-03-11T03:37:59;0.82;;;0.30;;
42518;SDS011;28147;47.520;18.920;2023-03-11T03:40:25;0.68;;;0.30;;
42518;SDS011;28147;47.520;18.920;2023-03-11T03:42:51;0.25;;;0.20;;
42518;SDS011;28147;47.520;18.920;2023-03-11T03:45:17;0.35;;;0.22;;
42518;SDS011;28147;47.520;18.920;2023-03-11T03:47:43;1.52;;;0.65;;
42518;SDS011;28147;47.520;18.920;2023-03-11T03:50:09;0.95;;;0.40;;
42518;SDS011;28147;47.520;18.920;2023-03-11T03:52:35;0.38;;;0.30;;
42518;SDS011;28147;47.520;18.920;2023-03-11T03:55:02;0.40;;;0.38;;
42518;SDS011;28147;47.520;18.920;2023-03-11T03:57:29;0.30;;;0.20;;
42518;SDS011;28147;47.520;18.920;2023-03-11T03:59:55;1.30;;;0.40;;
42518;SDS011;28147;47.520;18.920;2023-03-11T04:02:20;1.45;;;0.50;;
42518;SDS011;28147;47.520;18.920;2023-03-11T04:04:46;1.75;;;0.50;;
42518;SDS011;28147;47.520;18.920;2023-03-11T04:07:11;0.52;;;0.30;;
42518;SDS011;28147;47.520;18.920;2023-03-11T04:09:38;0.95;;;0.30;;
42518;SDS011;28147;47.520;18.920;2023-03-11T04:12:05;1.17;;;0.20;;
42518;SDS011;28147;47.520;18.920;2023-03-11T04:14:31;0.55;;;0.40;;
42518;SDS011;28147;47.520;18.920;2023-03-11T04:16:56;1.33;;;0.75;;
42518;SDS011;28147;47.520;18.920;2023-03-11T04:19:22;0.77;;;0.30;;
42518;SDS011;28147;47.520;18.920;2023-03-11T04:21:47;0.90;;;0.40;;
42518;SDS011;28147;47.520;18.920;2023-03-11T04:24:14;5.57;;;0.85;;
42518;SDS011;28147;47.520;18.920;2023-03-11T04:26:40;1.08;;;0.40;;
42518;SDS011;28147;47.520;18.920;2023-03-11T04:29:05;3.40;;;0.22;;
42518;SDS011;28147;47.520;18.920;2023-03-11T04:31:31;0.93;;;0.40;;
42518;SDS011;28147;47.520;18.920;2023-03-11T04:33:56;0.73;;;0.30;;
42518;SDS011;28147;47.520;18.920;2023-03-11T04:36:21;1.42;;;0.50;;
42518;SDS011;28147;47.520;18.920;2023-03-11T04:38:47;2.00;;;0.65;;
42518;SDS011;28147;47.520;18.920;2023-03-11T04:41:12;4.75;;;0.60;;
42518;SDS011;28147;47.520;18.920;2023-03-11T04:43:38;4.38;;;0.63;;
42518;SDS011;28147;47.520;18.920;2023-03-11T04:46:03;2.72;;;0.60;;
42518;SDS011;28147;47.520;18.920;2023-03-11T04:50:36;4.15;;;0.50;;
42518;SDS011;28147;47.520;18.920;2023-03-11T04:53:01;6.38;;;1.10;;
42518;SDS011;28147;47.520;18.920;2023-03-11T04:55:27;9.68;;;1.05;;
42518;SDS011;28147;47.520;18.920;2023-03-11T04:57:52;8.73;;;1.27;;
42518;SDS011;28147;47.520;18.920;2023-03-11T05:02:21;11.02;;;1.45;;
42518;SDS011;28147;47.520;18.920;2023-03-11T05:08:22;23.10;;;1.88;;
42518;SDS011;28147;47.520;18.920;2023-03-11T05:12:58;20.65;;;2.58;;
42518;SDS011;28147;47.520;18.920;2023-03-11T05:15:23;19.08;;;1.60;;
42518;SDS011;28147;47.520;18.920;2023-03-11T05:21:14;19.25;;;2.95;;
42518;SDS011;28147;47.520;18.920;2023-03-11T05:23:40;14.38;;;1.48;;
42518;SDS011;28147;47.520;18.920;2023-03-11T05:26:05;9.55;;;1.67;;
42518;SDS011;28147;47.520;18.920;2023-03-11T05:28:31;15.18;;;1.52;;
42518;SDS011;28147;47.520;18.920;2023-03-11T05:30:56;10.75;;;1.35;;
42518;SDS011;28147;47.520;18.920;2023-03-11T05:33:32;7.03;;;1.08;;
42518;SDS011;28147;47.520;18.920;2023-03-11T05:36:07;6.32;;;0.60;;
42518;SDS011;28147;47.520;18.920;2023-03-11T05:38:34;8.52;;;1.00;;
42518;SDS011;28147;47.520;18.920;2023-03-11T05:41:00;8.35;;;1.67;;
42518;SDS011;28147;47.520;18.920;2023-03-11T05:43:26;9.50;;;1.00;;
42518;SDS011;28147;47.520;18.920;2023-03-11T05:45:52;11.13;;;1.45;;
42518;SDS011;28147;47.520;18.920;2023-03-11T05:48:17;4.43;;;0.82;;
42518;SDS011;28147;47.520;18.920;2023-03-11T05:50:42;5.40;;;0.70;;
42518;SDS011;28147;47.520;18.920;2023-03-11T05:53:08;3.83;;;0.70;;
42518;SDS011;28147;47.520;18.920;2023-03-11T05:55:33;2.33;;;1.02;;
42518;SDS011;28147;47.520;18.920;2023-03-11T05:57:59;6.15;;;0.60;;
42518;SDS011;28147;47.520;18.920;2023-03-11T06:00:24;9.18;;;0.68;;
42518;SDS011;28147;47.520;18.920;2023-03-11T06:02:53;5.68;;;1.80;;
42518;SDS011;28147;47.520;18.920;2023-03-11T06:05:19;4.65;;;0.68;;
42518;SDS011;28147;47.520;18.920;2023-03-11T06:07:45;2.95;;;1.08;;
42518;SDS011;28147;47.520;18.920;2023-03-11T06:10:11;4.32;;;0.70;;
42518;SDS011;28147;47.520;18.920;2023-03-11T06:12:37;9.00;;;0.88;;
42518;SDS011;28147;47.520;18.920;2023-03-11T06:15:03;5.43;;;0.90;;
42518;SDS011;28147;47.520;18.920;2023-03-11T06:17:31;7.22;;;0.68;;
42518;SDS011;28147;47.520;18.920;2023-03-11T06:19:57;1.85;;;0.60;;
42518;SDS011;28147;47.520;18.920;2023-03-11T06:22:22;4.95;;;0.52;;
42518;SDS011;28147;47.520;18.920;2023-03-11T06:24:48;1.15;;;0.55;;
42518;SDS011;28147;47.520;18.920;2023-03-11T06:27:14;0.98;;;0.60;;
42518;SDS011;28147;47.520;18.920;2023-03-11T06:29:39;1.38;;;0.50;;
42518;SDS011;28147;47.520;18.920;2023-03-11T06:32:05;3.20;;;0.57;;
42518;SDS011;28147;47.520;18.920;2023-03-11T06:34:31;2.05;;;0.63;;
42518;SDS011;28147;47.520;18.920;2023-03-11T06:36:56;2.10;;;0.60;;
42518;SDS011;28147;47.520;18.920;2023-03-11T06:39:23;0.68;;;0.50;;
42518;SDS011;28147;47.520;18.920;2023-03-11T06:41:49;6.50;;;0.98;;
42518;SDS011;28147;47.520;18.920;2023-03-11T06:44:15;0.55;;;0.43;;
42518;SDS011;28147;47.520;18.920;2023-03-11T06:46:40;0.80;;;0.50;;
42518;SDS011;28147;47.520;18.920;2023-03-11T06:49:05;0.93;;;0.50;;
42518;SDS011;28147;47.520;18.920;2023-03-11T06:51:31;0.40;;;0.38;;
42518;SDS011;28147;47.520;18.920;2023-03-11T06:53:57;1.50;;;0.50;;
42518;SDS011;28147;47.520;18.920;2023-03-11T06:56:23;0.65;;;0.40;;
42518;SDS011;28147;47.520;18.920;2023-03-11T06:58:49;0.55;;;0.40;;
42518;SDS011;28147;47.520;18.920;2023-03-11T07:01:18;1.23;;;0.50;;
42518;SDS011;28147;47.520;18.920;2023-03-11T07:03:46;0.52;;;0.45;;
42518;SDS011;28147;47.520;18.920;2023-03-11T07:06:15;0.80;;;0.50;;
42518;SDS011;28147;47.520;18.920;2023-03-11T07:08:42;1.63;;;0.40;;
42518;SDS011;28147;47.520;18.920;2023-03-11T07:11:21;0.75;;;0.40;;
42518;SDS011;28147;47.520;18.920;2023-03-11T07:13:49;0.20;;;0.20;;
42518;SDS011;28147;47.520;18.920;2023-03-11T07:16:16;2.78;;;0.50;;
42518;SDS011;28147;47.520;18.920;2023-03-11T07:18:46;1.23;;;0.45;;
42518;SDS011;28147;47.520;18.920;2023-03-11T07:21:13;1.45;;;0.60;;
42518;SDS011;28147;47.520;18.920;2023-03-11T07:23:40;1.83;;;0.47;;
42518;SDS011;28147;47.520;18.920;2023-03-11T07:26:08;1.25;;;0.52;;
42518;SDS011;28147;47.520;18.920;2023-03-11T07:28:34;0.57;;;0.40;;
42518;SDS011;28147;47.520;18.920;2023-03-11T07:31:05;0.40;;;0.40;;
42518;SDS011;28147;47.520;18.920;2023-03-11T07:33:31;0.90;;;0.40;;
42518;SDS011;28147;47.520;18.920;2023-03-11T07:35:57;0.30;;;0.30;;
42518;SDS011;28147;47.520;18.920;2023-03-11T07:38:23;0.88;;;0.40;;
42518;SDS011;28147;47.520;18.920;2023-03-11T07:40:56;3.17;;;0.60;;
42518;SDS011;28147;47.520;18.920;2023-03-11T07:43:22;2.35;;;0.40;;
42518;SDS011;28147;47.520;18.920;2023-03-11T07:45:48;0.55;;;0.50;;
42518;SDS011;28147;47.520;18.920;2023-03-11T07:48:14;0.68;;;0.32;;
42518;SDS011;28147;47.520;18.920;2023-03-11T07:50:39;0.30;;;0.30;;
42518;SDS011;28147;47.520;18.920;2023-03-11T07:53:05;0.65;;;0.40;;
42518;SDS011;28147;47.520;18.920;2023-03-11T07:55:30;1.40;;;0.60;;
42518;SDS011;28147;47.520;18.920;2023-03-11T07:57:56;0.68;;;0.50;;
42518;SDS011;28147;47.520;18.920;2023-03-11T08:00:21;0.32;;;0.32;;
42518;SDS011;28147;47.520;18.920;2023-03-11T08:02:47;0.60;;;0.30;;
42518;SDS011;28147;47.520;18.920;2023-03-11T08:05:12;0.73;;;0.40;;
42518;SDS011;28147;47.520;18.920;2023-03-11T08:07:37;2.17;;;0.77;;
42518;SDS011;28147;47.520;18.920;2023-03-11T08:10:03;1.50;;;0.70;;
42518;SDS011;28147;47.520;18.920;2023-03-11T08:12:29;1.20;;;0.57;;
42518;SDS011;28147;47.520;18.920;2023-03-11T08:14:54;1.30;;;0.95;;
42518;SDS011;28147;47.520;18.920;2023-03-11T08:17:19;0.98;;;0.45;;
42518;SDS011;28147;47.520;18.920;2023-03-11T08:19:45;2.33;;;0.65;;
42518;SDS011;28147;47.520;18.920;2023-03-11T08:22:10;0.47;;;0.40;;
42518;SDS011;28147;47.520;18.920;2023-03-11T08:24:35;0.85;;;0.50;;
42518;SDS011;28147;47.520;18.920;2023-03-11T08:27:01;1.50;;;0.60;;
42518;SDS011;28147;47.520;18.920;2023-03-11T08:29:26;0.70;;;0.22;;
42518;SDS011;28147;47.520;18.920;2023-03-11T08:31:52;0.35;;;0.35;;
42518;SDS011;28147;47.520;18.920;2023-03-11T08:34:17;0.65;;;0.50;;
42518;SDS011;28147;47.520;18.920;2023-03-11T08:36:45;1.60;;;0.45;;
42518;SDS011;28147;47.520;18.920;2023-03-11T08:39:10;1.00;;;0.40;;
42518;SDS011;28147;47.520;18.920;2023-03-11T08:41:37;1.02;;;0.95;;
42518;SDS011;28147;47.520;18.920;2023-03-11T08:44:03;0.40;;;0.38;;
42518;SDS011;28147;47.520;18.920;2023-03-11T08:48:56;1.55;;;0.75;;
42518;SDS011;28147;47.520;18.920;2023-03-11T08:51:22;0.95;;;0.63;;
42518;SDS011;28147;47.520;18.920;2023-03-11T08:53:49;4.18;;;0.82;;
42518;SDS011;28147;47.520;18.920;2023-03-11T08:56:15;3.78;;;1.30;;
42518;SDS011;28147;47.520;18.920;2023-03-11T08:58:40;6.78;;;2.20;;
42518;SDS011;28147;47.520;18.920;2023-03-11T09:01:06;3.60;;;1.42;;
42518;SDS011;28147;47.520;18.920;2023-03-11T09:03:33;3.53;;;1.88;;
42518;SDS011;28147;47.520;18.920;2023-03-11T09:06:00;4.65;;;1.70;;
42518;SDS011;28147;47.520;18.920;2023-03-11T09:08:30;3.08;;;1.10;;
42518;SDS011;28147;47.520;18.920;2023-03-11T09:10:56;2.95;;;1.30;;
42518;SDS011;28147;47.520;18.920;2023-03-11T09:13:22;1.65;;;0.82;;
42518;SDS011;28147;47.520;18.920;2023-03-11T09:15:48;1.25;;;0.50;;
42518;SDS011;28147;47.520;18.920;2023-03-11T09:18:14;1.95;;;0.90;;
42518;SDS011;28147;47.520;18.920;2023-03-11T09:20:41;2.33;;;1.15;;
42518;SDS011;28147;47.520;18.920;2023-03-11T09:23:08;2.83;;;1.02;;
42518;SDS011;28147;47.520;18.920;2023-03-11T09:25:35;0.55;;;0.45;;
42518;SDS011;28147;47.520;18.920;2023-03-11T09:28:00;1.75;;;0.65;;
42518;SDS011;28147;47.520;18.920;2023-03-11T09:30:26;1.52;;;0.90;;
42518;SDS011;28147;47.520;18.920;2023-03-11T09:32:51;0.85;;;0.50;;
42518;SDS011;28147;47.520;18.920;2023-03-11T09:35:17;1.02;;;0.70;;
42518;SDS011;28147;47.520;18.920;2023-03-11T09:37:42;0.52;;;0.43;;
42518;SDS011;28147;47.520;18.920;2023-03-11T09:40:10;2.42;;;1.45;;
42518;SDS011;28147;47.520;18.920;2023-03-11T09:50:19;0.32;;;0.32;;
42518;SDS011;28147;47.520;18.920;2023-03-11T09:52:50;1.67;;;0.57;;
42518;SDS011;28147;47.520;18.920;2023-03-11T10:01:07;0.20;;;0.20;;
42518;SDS011;28147;47.520;18.920;2023-03-11T10:03:39;2.05;;;0.40;;
42518;SDS011;28147;47.520;18.920;2023-03-11T10:06:13;1.52;;;0.70;;
42518;SDS011;28147;47.520;18.920;2023-03-11T10:14:43;1.40;;;0.40;;
42518;SDS011;28147;47.520;18.920;2023-03-11T10:20:33;1.98;;;0.43;;
42518;SDS011;28147;47.520;18.920;2023-03-11T10:26:02;3.30;;;0.47;;
42518;SDS011;28147;47.520;18.920;2023-03-11T10:28:36;1.08;;;0.75;;
42518;SDS011;28147;47.520;18.920;2023-03-11T10:33:58;0.90;;;0.85;;
42518;SDS011;28147;47.520;18.920;2023-03-11T10:36:39;3.90;;;0.75;;
42518;SDS011;28147;47.520;18.920;2023-03-11T10:39:28;0.70;;;0.45;;
42518;SDS011;28147;47.520;18.920;2023-03-11T10:41:56;0.65;;;0.30;;
42518;SDS011;28147;47.520;18.920;2023-03-11T10:44:45;1.13;;;0.40;;
42518;SDS011;28147;47.520;18.920;2023-03-11T10:47:17;1.60;;;0.65;;
42518;SDS011;28147;47.520;18.920;2023-03-11T10:49:44;4.00;;;0.30;;
42518;SDS011;28147;47.520;18.920;2023-03-11T10:52:10;2.17;;;0.50;;
42518;SDS011;28147;47.520;18.920;2023-03-11T10:54:40;2.63;;;0.85;;
42518;SDS011;28147;47.520;18.920;2023-03-11T10:57:26;3.17;;;0.40;;
42518;SDS011;28147;47.520;18.920;2023-03-11T11:00:00;1.83;;;0.52;;
42518;SDS011;28147;47.520;18.920;2023-03-11T11:02:40;0.43;;;0.28;;
42518;SDS011;28147;47.520;18.920;2023-03-11T11:07:51;0.85;;;0.52;;
42518;SDS011;28147;47.520;18.920;2023-03-11T11:10:27;5.00;;;0.95;;
42518;SDS011;28147;47.520;18.920;2023-03-11T11:15:40;5.82;;;0.68;;
42518;SDS011;28147;47.520;18.920;2023-03-11T11:18:18;1.25;;;0.38;;
42518;SDS011;28147;47.520;18.920;2023-03-11T11:21:01;3.65;;;0.73;;
42518;SDS011;28147;47.520;18.920;2023-03-11T11:23:48;0.77;;;0.43;;
42518;SDS011;28147;47.520;18.920;2023-03-11T11:26:22;0.82;;;0.47;;
42518;SDS011;28147;47.520;18.920;2023-03-11T11:31:33;2.33;;;0.30;;
42518;SDS011;28147;47.520;18.920;2023-03-11T11:34:03;1.45;;;0.75;;
42518;SDS011;28147;47.520;18.920;2023-03-11T11:37:03;3.60;;;1.40;;
42518;SDS011;28147;47.520;18.920;2023-03-11T11:39:31;1.08;;;0.50;;
42518;SDS011;28147;47.520;18.920;2023-03-11T11:42:09;2.03;;;1.50;;
42518;SDS011;28147;47.520;18.920;2023-03-11T11:44:38;1.05;;;0.75;;
42518;SDS011;28147;47.520;18.920;2023-03-11T11:47:09;0.85;;;0.30;;
42518;SDS011;28147;47.520;18.920;2023-03-11T11:49:43;2.95;;;0.52;;
42518;SDS011;28147;47.520;18.920;2023-03-11T11:52:26;5.22;;;0.50;;
42518;SDS011;28147;47.520;18.920;2023-03-11T11:55:02;1.25;;;0.60;;
42518;SDS011;28147;47.520;18.920;2023-03-11T11:57:44;1.42;;;0.47;;
42518;SDS011;28147;47.520;18.920;2023-03-11T12:05:44;1.02;;;0.52;;
42518;SDS011;28147;47.520;18.920;2023-03-11T12:08:35;5.20;;;0.43;;
42518;SDS011;28147;47.520;18.920;2023-03-11T12:11:03;0.68;;;0.40;;
42518;SDS011;28147;47.520;18.920;2023-03-11T12:13:52;4.22;;;0.77;;
42518;SDS011;28147;47.520;18.920;2023-03-11T12:27:21;1.40;;;0.60;;
42518;SDS011;28147;47.520;18.920;2023-03-11T12:29:50;3.13;;;0.60;;
42518;SDS011;28147;47.520;18.920;2023-03-11T12:32:23;1.45;;;0.45;;
42518;SDS011;28147;47.520;18.920;2023-03-11T12:35:01;1.70;;;0.60;;
42518;SDS011;28147;47.520;18.920;2023-03-11T12:37:38;5.45;;;0.50;;
42518;SDS011;28147;47.520;18.920;2023-03-11T12:43:25;2.88;;;0.57;;
42518;SDS011;28147;47.520;18.920;2023-03-11T12:46:01;2.20;;;0.40;;
42518;SDS011;28147;47.520;18.920;2023-03-11T12:51:04;0.85;;;0.40;;
42518;SDS011;28147;47.520;18.920;2023-03-11T12:53:46;2.70;;;0.43;;
42518;SDS011;28147;47.520;18.920;2023-03-11T12:58:53;1.83;;;0.63;;
42518;SDS011;28147;47.520;18.920;2023-03-11T13:09:40;1.52;;;0.70;;
42518;SDS011;28147;47.520;18.920;2023-03-11T13:31:17;1.65;;;0.88;;
42518;SDS011;28147;47.520;18.920;2023-03-11T13:39:28;0.65;;;0.65;;
42518;SDS011;28147;47.520;18.920;2023-03-11T13:41:55;5.28;;;0.82;;
42518;SDS011;28147;47.520;18.920;2023-03-11T13:44:23;1.58;;;0.80;;
42518;SDS011;28147;47.520;18.920;2023-03-11T13:47:09;3.47;;;1.35;;
42518;SDS011;28147;47.520;18.920;2023-03-11T13:49:49;3.85;;;1.05;;
42518;SDS011;28147;47.520;18.920;2023-03-11T13:52:34;0.90;;;0.60;;
42518;SDS011;28147;47.520;18.920;2023-03-11T13:55:07;1.85;;;0.90;;
42518;SDS011;28147;47.520;18.920;2023-03-11T13:57:50;4.82;;;0.95;;
42518;SDS011;28147;47.520;18.920;2023-03-11T14:00:21;1.27;;;0.63;;
42518;SDS011;28147;47.520;18.920;2023-03-11T14:03:03;2.83;;;0.70;;
42518;SDS011;28147;47.520;18.920;2023-03-11T14:05:38;2.70;;;1.10;;
42518;SDS011;28147;47.520;18.920;2023-03-11T14:08:27;1.40;;;0.70;;
42518;SDS011;28147;47.520;18.920;2023-03-11T14:10:59;3.13;;;1.48;;
42518;SDS011;28147;47.520;18.920;2023-03-11T14:13:45;2.88;;;1.05;;
42518;SDS011;28147;47.520;18.920;2023-03-11T14:16:23;1.88;;;0.82;;
42518;SDS011;28147;47.520;18.920;2023-03-11T14:19:17;1.85;;;0.77;;
42518;SDS011;28147;47.520;18.920;2023-03-11T14:21:44;0.77;;;0.60;;
42518;SDS011;28147;47.520;18.920;2023-03-11T14:24:18;4.50;;;0.77;;
42518;SDS011;28147;47.520;18.920;2023-03-11T14:26:47;0.73;;;0.57;;
42518;SDS011;28147;47.520;18.920;2023-03-11T14:29:15;1.17;;;0.80;;
42518;SDS011;28147;47.520;18.920;2023-03-11T14:31:44;3.90;;;0.90;;
42518;SDS011;28147;47.520;18.920;2023-03-11T14:34:14;2.05;;;0.90;;
42518;SDS011;28147;47.520;18.920;2023-03-11T14:36:42;0.98;;;0.70;;
42518;SDS011;28147;47.520;18.920;2023-03-11T14:44:39;1.58;;;0.75;;
42518;SDS011;28147;47.520;18.920;2023-03-11T14:47:13;2.33;;;1.00;;
42518;SDS011;28147;47.520;18.920;2023-03-11T14:49:44;2.08;;;0.90;;
42518;SDS011;28147;47.520;18.920;2023-03-11T14:52:15;1.30;;;0.80;;
42518;SDS011;28147;47.520;18.920;2023-03-11T14:54:45;1.85;;;0.88;;
42518;SDS011;28147;47.520;18.920;2023-03-11T14:57:17;4.53;;;1.05;;
42518;SDS011;28147;47.520;18.920;2023-03-11T14:59:47;4.93;;;1.15;;
42518;SDS011;28147;47.520;18.920;2023-03-11T15:04:52;2.63;;;1.25;;
42518;SDS011;28147;47.520;18.920;2023-03-11T15:07:21;5.45;;;1.20;;
42518;SDS011;28147;47.520;18.920;2023-03-11T15:09:47;2.80;;;1.10;;
42518;SDS011;28147;47.520;18.920;2023-03-11T15:12:46;6.55;;;0.88;;
42518;SDS011;28147;47.520;18.920;2023-03-11T15:18:18;2.42;;;1.30;;
42518;SDS011;28147;47.520;18.920;2023-03-11T15:20:46;2.28;;;1.20;;
42518;SDS011;28147;47.520;18.920;2023-03-11T15:23:49;2.83;;;1.00;;
42518;SDS011;28147;47.520;18.920;2023-03-11T15:26:18;3.08;;;1.50;;
42518;SDS011;28147;47.520;18.920;2023-03-11T15:28:45;1.52;;;0.88;;
42518;SDS011;28147;47.520;18.920;2023-03-11T15:35:10;2.85;;;1.10;;
42518;SDS011;28147;47.520;18.920;2023-03-11T15:37:36;3.50;;;1.27;;
42518;SDS011;28147;47.520;18.920;2023-03-11T15:42:44;2.08;;;1.15;;
42518;SDS011;28147;47.520;18.920;2023-03-11T15:47:36;2.40;;;1.23;;
42518;SDS011;28147;47.520;18.920;2023-03-11T15:50:45;5.13;;;1.08;;
42518;SDS011;28147;47.520;18.920;2023-03-11T15:52:54;2.50;;;1.20;;
42518;SDS011;28147;47.520;18.920;2023-03-11T15:55:21;2.97;;;1.25;;
42518;SDS011;28147;47.520;18.920;2023-03-11T15:57:48;3.72;;;1.40;;
42518;SDS011;28147;47.520;18.920;2023-03-11T16:00:19;2.65;;;1.17;;
42518;SDS011;28147;47.520;18.920;2023-03-11T16:02:47;2.90;;;1.50;;
42518;SDS011;28147;47.520;18.920;2023-03-11T16:05:15;4.10;;;1.30;;
42518;SDS011;28147;47.520;18.920;2023-03-11T16:07:42;3.72;;;1.77;;
42518;SDS011;28147;47.520;18.920;2023-03-11T16:10:08;2.80;;;1.08;;
42518;SDS011;28147;47.520;18.920;2023-03-11T16:12:34;3.30;;;1.20;;
42518;SDS011;28147;47.520;18.920;2023-03-11T16:15:00;2.65;;;1.38;;
42518;SDS011;28147;47.520;18.920;2023-03-11T16:17:25;10.75;;;2.80;;
42518;SDS011;28147;47.520;18.920;2023-03-11T16:19:51;4.57;;;1.52;;
42518;SDS011;28147;47.520;18.920;2023-03-11T16:22:20;4.07;;;1.65;;
42518;SDS011;28147;47.520;18.920;2023-03-11T16:24:53;4.85;;;1.70;;
42518;SDS011;28147;47.520;18.920;2023-03-11T16:27:19;4.60;;;1.00;;
42518;SDS011;28147;47.520;18.920;2023-03-11T16:29:44;4.18;;;1.17;;
42518;SDS011;28147;47.520;18.920;2023-03-11T16:32:10;4.13;;;1.20;;
42518;SDS011;28147;47.520;18.920;2023-03-11T16:34:37;5.03;;;1.33;;
42518;SDS011;28147;47.520;18.920;2023-03-11T16:37:06;2.25;;;1.20;;
42518;SDS011;28147;47.520;18.920;2023-03-11T16:39:33;2.30;;;1.05;;
42518;SDS011;28147;47.520;18.920;2023-03-11T16:41:58;3.03;;;1.20;;
42518;SDS011;28147;47.520;18.920;2023-03-11T16:44:24;2.08;;;1.27;;
42518;SDS011;28147;47.520;18.920;2023-03-11T16:46:50;2.20;;;1.15;;
42518;SDS011;28147;47.520;18.920;2023-03-11T16:49:15;1.73;;;0.80;;
42518;SDS011;28147;47.520;18.920;2023-03-11T16:51:41;1.38;;;1.00;;
42518;SDS011;28147;47.520;18.920;2023-03-11T16:54:06;1.83;;;0.98;;
42518;SDS011;28147;47.520;18.920;2023-03-11T16:56:32;2.72;;;1.20;;
42518;SDS011;28147;47.520;18.920;2023-03-11T16:58:59;4.97;;;1.30;;